sensor_id;sensor_type;location;lat;lon;timestamp;P1;P2;P0
43280;PMS5003;62175;49.416;8.690;2022-11-06T00:02:04;10;9;
43280;PMS5003;62175;49.416;8.690;2022-11-06T00:04:31;11;10;
43280;PMS5003;62175;49.416;8.690;2022-11-06T00:06:58;12;10;
43280;PMS5003;62175;49.416;8.690;2022-11-06T00:09:25;13;12;
43280;PMS5003;62175;49.416;8.690;2022-11-06T00:11:53;16;14;
43280;PMS5003;62175;49.416;8.690;2022-11-06T00:14:20;12;11;
43280;PMS5003;62175;49.416;8.690;2022-11-06T00:16:47;10;10;
43280;PMS5003;62175;49.416;8.690;2022-11-06T00:19:14;16;16;
43280;PMS5003;62175;49.416;8.690;2022-11-06T00:21:44;12;12;
43280;PMS5003;62175;49.416;8.690;2022-11-06T00:24:11;16;14;
43280;PMS5003;62175;49.416;8.690;2022-11-06T00:26:40;14;13;
43280;PMS5003;62175;49.416;8.690;2022-11-06T00:29:09;18;16;
43280;PMS5003;62175;49.416;8.690;2022-11-06T00:31:39;14;13;
43280;PMS5003;62175;49.416;8.690;2022-11-06T00:34:06;17;14;
43280;PMS5003;62175;49.416;8.690;2022-11-06T00:36:35;12;11;
43280;PMS5003;62175;49.416;8.690;2022-11-06T00:39:03;16;14;
43280;PMS5003;62175;49.416;8.690;2022-11-06T00:41:30;12;10;
43280;PMS5003;62175;49.416;8.690;2022-11-06T00:43:58;16;12;
43280;PMS5003;62175;49.416;8.690;2022-11-06T00:46:27;13;12;
43280;PMS5003;62175;49.416;8.690;2022-11-06T00:48:54;9;9;
43280;PMS5003;62175;49.416;8.690;2022-11-06T00:51:25;10;10;
43280;PMS5003;62175;49.416;8.690;2022-11-06T00:53:53;13;12;
43280;PMS5003;62175;49.416;8.690;2022-11-06T00:56:22;11;10;
43280;PMS5003;62175;49.416;8.690;2022-11-06T00:58:50;14;14;
43280;PMS5003;62175;49.416;8.690;2022-11-06T01:01:18;17;11;
43280;PMS5003;62175;49.416;8.690;2022-11-06T01:03:47;14;12;
43280;PMS5003;62175;49.416;8.690;2022-11-06T01:06:20;9;9;
43280;PMS5003;62175;49.416;8.690;2022-11-06T01:08:48;13;12;
43280;PMS5003;62175;49.416;8.690;2022-11-06T01:11:18;14;12;
43280;PMS5003;62175;49.416;8.690;2022-11-06T01:13:47;13;12;
43280;PMS5003;62175;49.416;8.690;2022-11-06T01:16:16;11;11;
43280;PMS5003;62175;49.416;8.690;2022-11-06T01:18:44;16;14;
43280;PMS5003;62175;49.416;8.690;2022-11-06T01:21:12;14;13;
43280;PMS5003;62175;49.416;8.690;2022-11-06T01:23:41;15;14;
43280;PMS5003;62175;49.416;8.690;2022-11-06T01:26:09;13;12;
43280;PMS5003;62175;49.416;8.690;2022-11-06T01:28:39;11;10;
43280;PMS5003;62175;49.416;8.690;2022-11-06T01:31:07;12;11;
43280;PMS5003;62175;49.416;8.690;2022-11-06T01:33:35;13;10;
43280;PMS5003;62175;49.416;8.690;2022-11-06T01:36:03;14;12;
43280;PMS5003;62175;49.416;8.690;2022-11-06T01:38:31;13;12;
43280;PMS5003;62175;49.416;8.690;2022-11-06T01:40:58;12;12;
43280;PMS5003;62175;49.416;8.690;2022-11-06T01:43:43;11;10;
43280;PMS5003;62175;49.416;8.690;2022-11-06T01:46:12;11;11;
43280;PMS5003;62175;49.416;8.690;2022-11-06T01:48:43;17;15;
43280;PMS5003;62175;49.416;8.690;2022-11-06T01:51:15;11;11;
43280;PMS5003;62175;49.416;8.690;2022-11-06T01:53:42;14;14;
43280;PMS5003;62175;49.416;8.690;2022-11-06T01:56:10;12;11;
43280;PMS5003;62175;49.416;8.690;2022-11-06T01:58:39;16;13;
43280;PMS5003;62175;49.416;8.690;2022-11-06T02:01:08;11;10;
43280;PMS5003;62175;49.416;8.690;2022-11-06T02:03:36;14;12;
43280;PMS5003;62175;49.416;8.690;2022-11-06T02:06:04;10;10;
43280;PMS5003;62175;49.416;8.690;2022-11-06T02:08:33;14;13;
43280;PMS5003;62175;49.416;8.690;2022-11-06T02:11:00;13;12;
43280;PMS5003;62175;49.416;8.690;2022-11-06T02:13:31;11;10;
43280;PMS5003;62175;49.416;8.690;2022-11-06T02:16:08;12;11;
43280;PMS5003;62175;49.416;8.690;2022-11-06T02:18:47;14;11;
43280;PMS5003;62175;49.416;8.690;2022-11-06T02:21:25;12;10;
43280;PMS5003;62175;49.416;8.690;2022-11-06T02:24:28;10;10;
43280;PMS5003;62175;49.416;8.690;2022-11-06T02:27:07;12;12;
43280;PMS5003;62175;49.416;8.690;2022-11-06T02:29:37;11;11;
43280;PMS5003;62175;49.416;8.690;2022-11-06T02:32:15;14;12;
43280;PMS5003;62175;49.416;8.690;2022-11-06T02:34:46;10;8;
43280;PMS5003;62175;49.416;8.690;2022-11-06T02:37:19;10;9;
43280;PMS5003;62175;49.416;8.690;2022-11-06T02:39:51;14;13;
43280;PMS5003;62175;49.416;8.690;2022-11-06T02:42:23;11;11;
43280;PMS5003;62175;49.416;8.690;2022-11-06T02:44:52;15;13;
43280;PMS5003;62175;49.416;8.690;2022-11-06T02:47:22;15;14;
43280;PMS5003;62175;49.416;8.690;2022-11-06T02:49:54;14;12;
43280;PMS5003;62175;49.416;8.690;2022-11-06T02:52:28;17;16;
43280;PMS5003;62175;49.416;8.690;2022-11-06T02:55:01;13;13;
43280;PMS5003;62175;49.416;8.690;2022-11-06T02:57:33;11;11;
43280;PMS5003;62175;49.416;8.690;2022-11-06T03:00:06;10;10;
43280;PMS5003;62175;49.416;8.690;2022-11-06T03:02:37;14;12;
43280;PMS5003;62175;49.416;8.690;2022-11-06T03:05:11;14;13;
43280;PMS5003;62175;49.416;8.690;2022-11-06T03:07:43;11;11;
43280;PMS5003;62175;49.416;8.690;2022-11-06T03:10:16;12;11;
43280;PMS5003;62175;49.416;8.690;2022-11-06T03:12:47;10;10;
43280;PMS5003;62175;49.416;8.690;2022-11-06T03:15:22;11;10;
43280;PMS5003;62175;49.416;8.690;2022-11-06T03:17:58;13;13;
43280;PMS5003;62175;49.416;8.690;2022-11-06T03:20:36;12;12;
43280;PMS5003;62175;49.416;8.690;2022-11-06T03:23:10;12;11;
43280;PMS5003;62175;49.416;8.690;2022-11-06T03:25:44;13;13;
43280;PMS5003;62175;49.416;8.690;2022-11-06T03:28:17;12;12;
43280;PMS5003;62175;49.416;8.690;2022-11-06T03:30:54;11;9;
43280;PMS5003;62175;49.416;8.690;2022-11-06T03:33:25;12;12;
43280;PMS5003;62175;49.416;8.690;2022-11-06T03:36:00;10;9;
43280;PMS5003;62175;49.416;8.690;2022-11-06T03:38:32;13;13;
43280;PMS5003;62175;49.416;8.690;2022-11-06T03:41:05;13;12;
43280;PMS5003;62175;49.416;8.690;2022-11-06T03:43:37;13;13;
43280;PMS5003;62175;49.416;8.690;2022-11-06T03:46:12;13;11;
43280;PMS5003;62175;49.416;8.690;2022-11-06T03:48:43;14;12;
43280;PMS5003;62175;49.416;8.690;2022-11-06T03:51:15;13;13;
43280;PMS5003;62175;49.416;8.690;2022-11-06T03:53:46;13;12;
43280;PMS5003;62175;49.416;8.690;2022-11-06T03:56:17;12;11;
43280;PMS5003;62175;49.416;8.690;2022-11-06T03:58:50;14;13;
43280;PMS5003;62175;49.416;8.690;2022-11-06T04:01:20;17;11;
43280;PMS5003;62175;49.416;8.690;2022-11-06T04:03:53;15;14;
43280;PMS5003;62175;49.416;8.690;2022-11-06T04:06:25;18;17;
43280;PMS5003;62175;49.416;8.690;2022-11-06T04:08:57;11;10;
43280;PMS5003;62175;49.416;8.690;2022-11-06T04:11:29;15;14;
43280;PMS5003;62175;49.416;8.690;2022-11-06T04:14:00;18;18;
43280;PMS5003;62175;49.416;8.690;2022-11-06T04:16:31;14;13;
43280;PMS5003;62175;49.416;8.690;2022-11-06T04:19:01;13;12;
43280;PMS5003;62175;49.416;8.690;2022-11-06T04:21:31;14;13;
43280;PMS5003;62175;49.416;8.690;2022-11-06T04:24:11;13;13;
43280;PMS5003;62175;49.416;8.690;2022-11-06T04:26:51;13;12;
43280;PMS5003;62175;49.416;8.690;2022-11-06T04:29:35;14;14;
43280;PMS5003;62175;49.416;8.690;2022-11-06T04:32:14;13;13;
43280;PMS5003;62175;49.416;8.690;2022-11-06T04:34:47;17;16;
43280;PMS5003;62175;49.416;8.690;2022-11-06T04:37:24;13;12;
43280;PMS5003;62175;49.416;8.690;2022-11-06T04:40:00;10;10;
43280;PMS5003;62175;49.416;8.690;2022-11-06T04:42:34;11;9;
43280;PMS5003;62175;49.416;8.690;2022-11-06T04:45:09;12;11;
43280;PMS5003;62175;49.416;8.690;2022-11-06T04:47:40;14;11;
43280;PMS5003;62175;49.416;8.690;2022-11-06T04:50:08;12;10;
43280;PMS5003;62175;49.416;8.690;2022-11-06T04:52:40;15;14;
43280;PMS5003;62175;49.416;8.690;2022-11-06T04:55:08;12;10;
43280;PMS5003;62175;49.416;8.690;2022-11-06T04:57:35;13;12;
43280;PMS5003;62175;49.416;8.690;2022-11-06T05:00:03;11;9;
43280;PMS5003;62175;49.416;8.690;2022-11-06T05:02:31;13;13;
43280;PMS5003;62175;49.416;8.690;2022-11-06T05:04:58;13;12;
43280;PMS5003;62175;49.416;8.690;2022-11-06T05:07:25;12;10;
43280;PMS5003;62175;49.416;8.690;2022-11-06T05:09:52;11;11;
43280;PMS5003;62175;49.416;8.690;2022-11-06T05:12:20;11;11;
43280;PMS5003;62175;49.416;8.690;2022-11-06T05:14:47;12;11;
43280;PMS5003;62175;49.416;8.690;2022-11-06T05:17:14;12;10;
43280;PMS5003;62175;49.416;8.690;2022-11-06T05:19:41;11;10;
43280;PMS5003;62175;49.416;8.690;2022-11-06T05:22:09;12;9;
43280;PMS5003;62175;49.416;8.690;2022-11-06T05:24:36;10;10;
43280;PMS5003;62175;49.416;8.690;2022-11-06T05:27:03;12;11;
43280;PMS5003;62175;49.416;8.690;2022-11-06T05:29:30;13;13;
43280;PMS5003;62175;49.416;8.690;2022-11-06T05:31:57;10;9;
43280;PMS5003;62175;49.416;8.690;2022-11-06T05:34:25;10;10;
43280;PMS5003;62175;49.416;8.690;2022-11-06T05:36:52;10;9;
43280;PMS5003;62175;49.416;8.690;2022-11-06T05:39:21;10;10;
43280;PMS5003;62175;49.416;8.690;2022-11-06T05:41:48;11;10;
43280;PMS5003;62175;49.416;8.690;2022-11-06T05:44:15;11;10;
43280;PMS5003;62175;49.416;8.690;2022-11-06T05:46:42;11;10;
43280;PMS5003;62175;49.416;8.690;2022-11-06T05:49:09;9;8;
43280;PMS5003;62175;49.416;8.690;2022-11-06T05:51:37;15;14;
43280;PMS5003;62175;49.416;8.690;2022-11-06T05:54:05;12;10;
43280;PMS5003;62175;49.416;8.690;2022-11-06T05:56:32;10;10;
43280;PMS5003;62175;49.416;8.690;2022-11-06T05:59:09;12;11;
43280;PMS5003;62175;49.416;8.690;2022-11-06T06:01:36;11;10;
43280;PMS5003;62175;49.416;8.690;2022-11-06T06:04:03;13;13;
43280;PMS5003;62175;49.416;8.690;2022-11-06T06:06:31;12;11;
43280;PMS5003;62175;49.416;8.690;2022-11-06T06:08:59;12;11;
43280;PMS5003;62175;49.416;8.690;2022-11-06T06:11:27;13;12;
43280;PMS5003;62175;49.416;8.690;2022-11-06T06:13:54;12;11;
43280;PMS5003;62175;49.416;8.690;2022-11-06T06:16:21;12;10;
43280;PMS5003;62175;49.416;8.690;2022-11-06T06:18:48;11;11;
43280;PMS5003;62175;49.416;8.690;2022-11-06T06:21:16;13;12;
43280;PMS5003;62175;49.416;8.690;2022-11-06T06:23:43;14;12;
43280;PMS5003;62175;49.416;8.690;2022-11-06T06:26:11;12;11;
43280;PMS5003;62175;49.416;8.690;2022-11-06T06:28:38;13;11;
43280;PMS5003;62175;49.416;8.690;2022-11-06T06:31:06;16;15;
43280;PMS5003;62175;49.416;8.690;2022-11-06T06:33:33;12;11;
43280;PMS5003;62175;49.416;8.690;2022-11-06T06:36:01;14;11;
43280;PMS5003;62175;49.416;8.690;2022-11-06T06:38:29;10;10;
43280;PMS5003;62175;49.416;8.690;2022-11-06T06:40:59;14;13;
43280;PMS5003;62175;49.416;8.690;2022-11-06T06:43:26;12;12;
43280;PMS5003;62175;49.416;8.690;2022-11-06T06:45:56;13;13;
43280;PMS5003;62175;49.416;8.690;2022-11-06T06:48:25;17;12;
43280;PMS5003;62175;49.416;8.690;2022-11-06T06:50:54;17;15;
43280;PMS5003;62175;49.416;8.690;2022-11-06T06:53:24;15;14;
43280;PMS5003;62175;49.416;8.690;2022-11-06T06:55:51;16;14;
43280;PMS5003;62175;49.416;8.690;2022-11-06T06:58:18;16;15;
43280;PMS5003;62175;49.416;8.690;2022-11-06T07:00:46;18;14;
43280;PMS5003;62175;49.416;8.690;2022-11-06T07:03:13;17;14;
43280;PMS5003;62175;49.416;8.690;2022-11-06T07:05:40;17;17;
43280;PMS5003;62175;49.416;8.690;2022-11-06T07:08:07;18;15;
43280;PMS5003;62175;49.416;8.690;2022-11-06T07:10:34;17;17;
43280;PMS5003;62175;49.416;8.690;2022-11-06T07:13:01;17;15;
43280;PMS5003;62175;49.416;8.690;2022-11-06T07:15:29;15;15;
43280;PMS5003;62175;49.416;8.690;2022-11-06T07:18:00;21;21;
43280;PMS5003;62175;49.416;8.690;2022-11-06T07:20:27;17;15;
43280;PMS5003;62175;49.416;8.690;2022-11-06T07:22:54;23;22;
43280;PMS5003;62175;49.416;8.690;2022-11-06T07:25:21;19;17;
43280;PMS5003;62175;49.416;8.690;2022-11-06T07:27:48;17;16;
43280;PMS5003;62175;49.416;8.690;2022-11-06T07:30:16;20;18;
43280;PMS5003;62175;49.416;8.690;2022-11-06T07:32:44;18;17;
43280;PMS5003;62175;49.416;8.690;2022-11-06T07:35:10;17;14;
43280;PMS5003;62175;49.416;8.690;2022-11-06T07:37:37;17;14;
43280;PMS5003;62175;49.416;8.690;2022-11-06T07:40:05;18;16;
43280;PMS5003;62175;49.416;8.690;2022-11-06T07:42:33;13;12;
43280;PMS5003;62175;49.416;8.690;2022-11-06T07:45:01;14;11;
43280;PMS5003;62175;49.416;8.690;2022-11-06T07:47:28;16;15;
43280;PMS5003;62175;49.416;8.690;2022-11-06T07:49:56;14;13;
43280;PMS5003;62175;49.416;8.690;2022-11-06T07:52:23;13;12;
43280;PMS5003;62175;49.416;8.690;2022-11-06T07:54:51;18;15;
43280;PMS5003;62175;49.416;8.690;2022-11-06T07:57:18;17;15;
43280;PMS5003;62175;49.416;8.690;2022-11-06T07:59:45;14;14;
43280;PMS5003;62175;49.416;8.690;2022-11-06T08:02:13;14;14;
43280;PMS5003;62175;49.416;8.690;2022-11-06T08:04:40;12;12;
43280;PMS5003;62175;49.416;8.690;2022-11-06T08:07:07;14;13;
43280;PMS5003;62175;49.416;8.690;2022-11-06T08:09:35;14;13;
43280;PMS5003;62175;49.416;8.690;2022-11-06T08:12:02;17;17;
43280;PMS5003;62175;49.416;8.690;2022-11-06T08:14:30;16;16;
43280;PMS5003;62175;49.416;8.690;2022-11-06T08:16:57;11;11;
43280;PMS5003;62175;49.416;8.690;2022-11-06T08:19:24;14;12;
43280;PMS5003;62175;49.416;8.690;2022-11-06T08:21:51;13;12;
43280;PMS5003;62175;49.416;8.690;2022-11-06T08:24:19;12;11;
43280;PMS5003;62175;49.416;8.690;2022-11-06T08:26:46;13;12;
43280;PMS5003;62175;49.416;8.690;2022-11-06T08:29:13;8;8;
43280;PMS5003;62175;49.416;8.690;2022-11-06T08:31:41;13;12;
43280;PMS5003;62175;49.416;8.690;2022-11-06T08:34:09;14;12;
43280;PMS5003;62175;49.416;8.690;2022-11-06T08:36:36;15;14;
43280;PMS5003;62175;49.416;8.690;2022-11-06T08:39:06;11;11;
43280;PMS5003;62175;49.416;8.690;2022-11-06T08:41:34;10;10;
43280;PMS5003;62175;49.416;8.690;2022-11-06T08:44:01;13;12;
43280;PMS5003;62175;49.416;8.690;2022-11-06T08:46:30;8;7;
43280;PMS5003;62175;49.416;8.690;2022-11-06T08:48:57;10;9;
43280;PMS5003;62175;49.416;8.690;2022-11-06T08:51:24;11;10;
43280;PMS5003;62175;49.416;8.690;2022-11-06T08:53:51;9;9;
43280;PMS5003;62175;49.416;8.690;2022-11-06T08:56:18;12;12;
43280;PMS5003;62175;49.416;8.690;2022-11-06T08:58:45;12;12;
43280;PMS5003;62175;49.416;8.690;2022-11-06T09:01:13;10;10;
43280;PMS5003;62175;49.416;8.690;2022-11-06T09:03:41;11;11;
43280;PMS5003;62175;49.416;8.690;2022-11-06T09:06:08;8;8;
43280;PMS5003;62175;49.416;8.690;2022-11-06T09:08:35;9;8;
43280;PMS5003;62175;49.416;8.690;2022-11-06T09:11:03;9;8;
43280;PMS5003;62175;49.416;8.690;2022-11-06T09:13:36;11;11;
43280;PMS5003;62175;49.416;8.690;2022-11-06T09:16:03;9;8;
43280;PMS5003;62175;49.416;8.690;2022-11-06T09:18:31;5;5;
43280;PMS5003;62175;49.416;8.690;2022-11-06T09:20:58;7;7;
43280;PMS5003;62175;49.416;8.690;2022-11-06T09:23:25;7;7;
43280;PMS5003;62175;49.416;8.690;2022-11-06T09:25:53;9;9;
43280;PMS5003;62175;49.416;8.690;2022-11-06T09:28:21;10;9;
43280;PMS5003;62175;49.416;8.690;2022-11-06T09:30:49;12;11;
43280;PMS5003;62175;49.416;8.690;2022-11-06T09:33:16;10;10;
43280;PMS5003;62175;49.416;8.690;2022-11-06T09:35:43;7;7;
43280;PMS5003;62175;49.416;8.690;2022-11-06T09:38:11;9;9;
43280;PMS5003;62175;49.416;8.690;2022-11-06T09:40:41;8;8;
43280;PMS5003;62175;49.416;8.690;2022-11-06T09:43:18;8;8;
43280;PMS5003;62175;49.416;8.690;2022-11-06T09:45:53;7;6;
43280;PMS5003;62175;49.416;8.690;2022-11-06T09:48:24;6;6;
43280;PMS5003;62175;49.416;8.690;2022-11-06T09:50:57;4;4;
43280;PMS5003;62175;49.416;8.690;2022-11-06T09:53:36;6;6;
43280;PMS5003;62175;49.416;8.690;2022-11-06T09:56:08;5;5;
43280;PMS5003;62175;49.416;8.690;2022-11-06T09:58:39;7;7;
43280;PMS5003;62175;49.416;8.690;2022-11-06T10:01:12;7;6;
43280;PMS5003;62175;49.416;8.690;2022-11-06T10:03:44;7;7;
43280;PMS5003;62175;49.416;8.690;2022-11-06T10:06:18;8;8;
43280;PMS5003;62175;49.416;8.690;2022-11-06T10:08:47;7;7;
43280;PMS5003;62175;49.416;8.690;2022-11-06T10:11:22;8;7;
43280;PMS5003;62175;49.416;8.690;2022-11-06T10:14:03;9;8;
43280;PMS5003;62175;49.416;8.690;2022-11-06T10:16:42;8;7;
43280;PMS5003;62175;49.416;8.690;2022-11-06T10:19:16;9;8;
43280;PMS5003;62175;49.416;8.690;2022-11-06T10:21:53;8;8;
43280;PMS5003;62175;49.416;8.690;2022-11-06T10:24:31;9;8;
43280;PMS5003;62175;49.416;8.690;2022-11-06T10:27:11;15;13;
43280;PMS5003;62175;49.416;8.690;2022-11-06T10:29:47;9;9;
43280;PMS5003;62175;49.416;8.690;2022-11-06T10:32:44;10;10;
43280;PMS5003;62175;49.416;8.690;2022-11-06T10:35:38;14;12;
43280;PMS5003;62175;49.416;8.690;2022-11-06T10:38:09;13;9;
43280;PMS5003;62175;49.416;8.690;2022-11-06T10:40:41;10;8;
43280;PMS5003;62175;49.416;8.690;2022-11-06T10:43:13;9;7;
43280;PMS5003;62175;49.416;8.690;2022-11-06T10:45:51;10;9;
43280;PMS5003;62175;49.416;8.690;2022-11-06T10:48:25;9;9;
43280;PMS5003;62175;49.416;8.690;2022-11-06T10:50:58;11;10;
43280;PMS5003;62175;49.416;8.690;2022-11-06T10:53:36;10;9;
43280;PMS5003;62175;49.416;8.690;2022-11-06T10:56:20;10;8;
43280;PMS5003;62175;49.416;8.690;2022-11-06T10:59:00;9;8;
43280;PMS5003;62175;49.416;8.690;2022-11-06T11:01:28;10;9;
43280;PMS5003;62175;49.416;8.690;2022-11-06T11:03:55;8;8;
43280;PMS5003;62175;49.416;8.690;2022-11-06T11:06:22;8;8;
43280;PMS5003;62175;49.416;8.690;2022-11-06T11:08:50;10;9;
43280;PMS5003;62175;49.416;8.690;2022-11-06T11:11:19;10;9;
43280;PMS5003;62175;49.416;8.690;2022-11-06T11:13:48;9;8;
43280;PMS5003;62175;49.416;8.690;2022-11-06T11:16:18;10;9;
43280;PMS5003;62175;49.416;8.690;2022-11-06T11:18:48;10;8;
43280;PMS5003;62175;49.416;8.690;2022-11-06T11:21:22;9;8;
43280;PMS5003;62175;49.416;8.690;2022-11-06T11:24:07;8;7;
43280;PMS5003;62175;49.416;8.690;2022-11-06T11:26:42;7;7;
43280;PMS5003;62175;49.416;8.690;2022-11-06T11:29:13;9;8;
43280;PMS5003;62175;49.416;8.690;2022-11-06T11:31:44;10;10;
43280;PMS5003;62175;49.416;8.690;2022-11-06T11:34:17;7;7;
43280;PMS5003;62175;49.416;8.690;2022-11-06T11:36:47;8;8;
43280;PMS5003;62175;49.416;8.690;2022-11-06T11:39:18;5;5;
43280;PMS5003;62175;49.416;8.690;2022-11-06T11:41:47;9;8;
43280;PMS5003;62175;49.416;8.690;2022-11-06T11:44:15;9;8;
43280;PMS5003;62175;49.416;8.690;2022-11-06T11:46:45;9;9;
43280;PMS5003;62175;49.416;8.690;2022-11-06T11:49:24;9;7;
43280;PMS5003;62175;49.416;8.690;2022-11-06T11:51:53;10;8;
43280;PMS5003;62175;49.416;8.690;2022-11-06T11:54:24;6;6;
43280;PMS5003;62175;49.416;8.690;2022-11-06T11:56:53;10;10;
43280;PMS5003;62175;49.416;8.690;2022-11-06T11:59:24;7;6;
43280;PMS5003;62175;49.416;8.690;2022-11-06T12:01:55;10;9;
43280;PMS5003;62175;49.416;8.690;2022-11-06T12:04:27;8;8;
43280;PMS5003;62175;49.416;8.690;2022-11-06T12:06:59;7;7;
43280;PMS5003;62175;49.416;8.690;2022-11-06T12:09:28;9;9;
43280;PMS5003;62175;49.416;8.690;2022-11-06T12:11:58;8;8;
43280;PMS5003;62175;49.416;8.690;2022-11-06T12:14:28;10;10;
43280;PMS5003;62175;49.416;8.690;2022-11-06T12:17:01;10;9;
43280;PMS5003;62175;49.416;8.690;2022-11-06T12:19:34;7;7;
43280;PMS5003;62175;49.416;8.690;2022-11-06T12:22:09;10;9;
43280;PMS5003;62175;49.416;8.690;2022-11-06T12:24:42;8;7;
43280;PMS5003;62175;49.416;8.690;2022-11-06T12:27:16;10;9;
43280;PMS5003;62175;49.416;8.690;2022-11-06T12:29:46;11;10;
43280;PMS5003;62175;49.416;8.690;2022-11-06T12:32:20;8;8;
43280;PMS5003;62175;49.416;8.690;2022-11-06T12:34:54;10;8;
43280;PMS5003;62175;49.416;8.690;2022-11-06T12:37:34;9;7;
43280;PMS5003;62175;49.416;8.690;2022-11-06T12:40:12;7;7;
43280;PMS5003;62175;49.416;8.690;2022-11-06T12:42:51;10;10;
43280;PMS5003;62175;49.416;8.690;2022-11-06T12:45:25;8;8;
43280;PMS5003;62175;49.416;8.690;2022-11-06T12:48:03;8;6;
43280;PMS5003;62175;49.416;8.690;2022-11-06T12:50:40;9;8;
43280;PMS5003;62175;49.416;8.690;2022-11-06T12:53:14;8;7;
43280;PMS5003;62175;49.416;8.690;2022-11-06T12:55:50;10;8;
43280;PMS5003;62175;49.416;8.690;2022-11-06T12:58:36;8;7;
43280;PMS5003;62175;49.416;8.690;2022-11-06T13:01:15;9;9;
43280;PMS5003;62175;49.416;8.690;2022-11-06T13:03:57;7;7;
43280;PMS5003;62175;49.416;8.690;2022-11-06T13:06:48;12;12;
43280;PMS5003;62175;49.416;8.690;2022-11-06T13:09:29;17;15;
43280;PMS5003;62175;49.416;8.690;2022-11-06T13:12:04;10;9;
43280;PMS5003;62175;49.416;8.690;2022-11-06T13:14:40;8;8;
43280;PMS5003;62175;49.416;8.690;2022-11-06T13:17:16;9;9;
43280;PMS5003;62175;49.416;8.690;2022-11-06T13:19:49;8;8;
43280;PMS5003;62175;49.416;8.690;2022-11-06T13:22:23;10;9;
43280;PMS5003;62175;49.416;8.690;2022-11-06T13:25:02;8;7;
43280;PMS5003;62175;49.416;8.690;2022-11-06T13:27:41;9;9;
43280;PMS5003;62175;49.416;8.690;2022-11-06T13:30:13;9;7;
43280;PMS5003;62175;49.416;8.690;2022-11-06T13:32:44;10;10;
43280;PMS5003;62175;49.416;8.690;2022-11-06T13:35:25;9;9;
43280;PMS5003;62175;49.416;8.690;2022-11-06T13:37:53;10;10;
43280;PMS5003;62175;49.416;8.690;2022-11-06T13:40:24;8;8;
43280;PMS5003;62175;49.416;8.690;2022-11-06T13:42:57;8;7;
43280;PMS5003;62175;49.416;8.690;2022-11-06T13:45:31;8;8;
43280;PMS5003;62175;49.416;8.690;2022-11-06T13:48:11;8;7;
43280;PMS5003;62175;49.416;8.690;2022-11-06T13:50:49;8;8;
43280;PMS5003;62175;49.416;8.690;2022-11-06T13:53:22;7;7;
43280;PMS5003;62175;49.416;8.690;2022-11-06T13:55:58;10;10;
43280;PMS5003;62175;49.416;8.690;2022-11-06T13:58:48;10;9;
43280;PMS5003;62175;49.416;8.690;2022-11-06T14:01:28;7;7;
43280;PMS5003;62175;49.416;8.690;2022-11-06T14:04:16;8;7;
43280;PMS5003;62175;49.416;8.690;2022-11-06T14:07:14;10;7;
43280;PMS5003;62175;49.416;8.690;2022-11-06T14:09:44;10;8;
43280;PMS5003;62175;49.416;8.690;2022-11-06T14:12:14;13;11;
43280;PMS5003;62175;49.416;8.690;2022-11-06T14:14:45;10;9;
43280;PMS5003;62175;49.416;8.690;2022-11-06T14:17:17;10;9;
43280;PMS5003;62175;49.416;8.690;2022-11-06T14:20:05;9;8;
43280;PMS5003;62175;49.416;8.690;2022-11-06T14:22:53;7;7;
43280;PMS5003;62175;49.416;8.690;2022-11-06T14:28:05;10;8;
43280;PMS5003;62175;49.416;8.690;2022-11-06T14:30:41;11;8;
43280;PMS5003;62175;49.416;8.690;2022-11-06T14:33:09;10;10;
43280;PMS5003;62175;49.416;8.690;2022-11-06T14:36:26;12;11;
43280;PMS5003;62175;49.416;8.690;2022-11-06T14:38:55;9;8;
43280;PMS5003;62175;49.416;8.690;2022-11-06T14:42:02;7;6;
43280;PMS5003;62175;49.416;8.690;2022-11-06T14:44:32;9;8;
43280;PMS5003;62175;49.416;8.690;2022-11-06T14:47:19;10;10;
43280;PMS5003;62175;49.416;8.690;2022-11-06T14:49:52;6;4;
43280;PMS5003;62175;49.416;8.690;2022-11-06T14:52:22;7;6;
43280;PMS5003;62175;49.416;8.690;2022-11-06T14:54:51;8;6;
43280;PMS5003;62175;49.416;8.690;2022-11-06T14:57:40;5;5;
43280;PMS5003;62175;49.416;8.690;2022-11-06T15:00:12;6;6;
43280;PMS5003;62175;49.416;8.690;2022-11-06T15:02:58;9;7;
43280;PMS5003;62175;49.416;8.690;2022-11-06T15:05:26;9;8;
43280;PMS5003;62175;49.416;8.690;2022-11-06T15:07:54;8;8;
43280;PMS5003;62175;49.416;8.690;2022-11-06T15:10:55;8;8;
43280;PMS5003;62175;49.416;8.690;2022-11-06T15:13:23;5;5;
43280;PMS5003;62175;49.416;8.690;2022-11-06T15:15:54;7;7;
43280;PMS5003;62175;49.416;8.690;2022-11-06T15:18:24;9;8;
43280;PMS5003;62175;49.416;8.690;2022-11-06T15:20:52;8;7;
43280;PMS5003;62175;49.416;8.690;2022-11-06T15:23:22;8;6;
43280;PMS5003;62175;49.416;8.690;2022-11-06T15:25:55;5;5;
43280;PMS5003;62175;49.416;8.690;2022-11-06T15:28:30;5;5;
43280;PMS5003;62175;49.416;8.690;2022-11-06T15:31:04;6;6;
43280;PMS5003;62175;49.416;8.690;2022-11-06T15:33:39;5;5;
43280;PMS5003;62175;49.416;8.690;2022-11-06T15:36:13;5;5;
43280;PMS5003;62175;49.416;8.690;2022-11-06T15:38:43;6;6;
43280;PMS5003;62175;49.416;8.690;2022-11-06T15:41:11;6;6;
43280;PMS5003;62175;49.416;8.690;2022-11-06T15:43:43;7;7;
43280;PMS5003;62175;49.416;8.690;2022-11-06T15:46:15;6;6;
43280;PMS5003;62175;49.416;8.690;2022-11-06T15:48:45;5;5;
43280;PMS5003;62175;49.416;8.690;2022-11-06T15:51:21;6;5;
43280;PMS5003;62175;49.416;8.690;2022-11-06T15:53:50;6;6;
43280;PMS5003;62175;49.416;8.690;2022-11-06T15:56:19;3;3;
43280;PMS5003;62175;49.416;8.690;2022-11-06T15:59:22;7;6;
43280;PMS5003;62175;49.416;8.690;2022-11-06T16:01:49;5;5;
43280;PMS5003;62175;49.416;8.690;2022-11-06T16:04:17;8;7;
43280;PMS5003;62175;49.416;8.690;2022-11-06T16:06:46;7;5;
43280;PMS5003;62175;49.416;8.690;2022-11-06T16:09:16;7;6;
43280;PMS5003;62175;49.416;8.690;2022-11-06T16:11:45;5;5;
43280;PMS5003;62175;49.416;8.690;2022-11-06T16:14:15;5;5;
43280;PMS5003;62175;49.416;8.690;2022-11-06T16:16:44;6;6;
43280;PMS5003;62175;49.416;8.690;2022-11-06T16:19:19;6;5;
43280;PMS5003;62175;49.416;8.690;2022-11-06T16:21:52;6;5;
43280;PMS5003;62175;49.416;8.690;2022-11-06T16:24:22;5;5;
43280;PMS5003;62175;49.416;8.690;2022-11-06T16:26:54;5;5;
43280;PMS5003;62175;49.416;8.690;2022-11-06T16:29:22;6;6;
43280;PMS5003;62175;49.416;8.690;2022-11-06T16:31:59;7;6;
43280;PMS5003;62175;49.416;8.690;2022-11-06T16:34:34;6;6;
43280;PMS5003;62175;49.416;8.690;2022-11-06T16:37:04;5;5;
43280;PMS5003;62175;49.416;8.690;2022-11-06T16:39:40;5;5;
43280;PMS5003;62175;49.416;8.690;2022-11-06T16:42:26;6;5;
43280;PMS5003;62175;49.416;8.690;2022-11-06T16:45:06;7;7;
43280;PMS5003;62175;49.416;8.690;2022-11-06T16:47:40;7;5;
43280;PMS5003;62175;49.416;8.690;2022-11-06T16:50:41;5;5;
43280;PMS5003;62175;49.416;8.690;2022-11-06T16:53:10;5;5;
43280;PMS5003;62175;49.416;8.690;2022-11-06T16:55:43;7;7;
43280;PMS5003;62175;49.416;8.690;2022-11-06T16:58:19;9;7;
43280;PMS5003;62175;49.416;8.690;2022-11-06T17:00:53;5;4;
43280;PMS5003;62175;49.416;8.690;2022-11-06T17:03:22;4;4;
43280;PMS5003;62175;49.416;8.690;2022-11-06T17:05:52;5;4;